| time (UTC) | temp C | wind direction | speed KPH | gust KPH | rain 1hr cm | rain 24hr cm | rain mn cm | humidity % | barometer mb |
| 20260502130502 | 5 | 227 | 4.8 | 12.9 | 0.00 | 0.00 | 0.00 | 73 | 1017.1 |
| 20260502123503 | 3 | 240 | 1.6 | 4.8 | 0.00 | 0.00 | 0.00 | 79 | 1017.3 |
| 20260502123003 | 2 | 240 | 1.6 | 4.8 | 0.00 | 0.00 | 0.00 | 79 | 1017.2 |
| 20260502122503 | 2 | 240 | 1.6 | 6.4 | 0.00 | 0.00 | 0.00 | 79 | 1017.2 |
| 20260502122003 | 2 | 240 | 3.2 | 6.4 | 0.00 | 0.00 | 0.00 | 79 | 1017.3 |
| 20260502121503 | 2 | 240 | 1.6 | 4.8 | 0.00 | 0.00 | 0.00 | 80 | 1017.3 |
| 20260502121002 | 2 | 240 | 1.6 | 4.8 | 0.00 | 0.00 | 0.00 | 79 | 1017.4 |
| 20260502120503 | 2 | 240 | 1.6 | 6.4 | 0.00 | 0.00 | 0.00 | 80 | 1017.3 |
| 20260502115503 | 1 | 240 | 1.6 | 6.4 | 0.00 | 0.00 | 0.00 | 79 | 1017.4 |
| 20260502115003 | 1 | 240 | 1.6 | 6.4 | 0.00 | 0.00 | 0.00 | 79 | 1017.4 |
| 20260502114502 | 1 | 240 | 0.0 | 1.6 | 0.00 | 0.00 | 0.00 | 79 | 1017.5 |
| 20260502114003 | 1 | 240 | 0.0 | 3.2 | 0.00 | 0.00 | 0.00 | 79 | 1017.5 |
| 20260502113502 | 2 | 240 | 1.6 | 3.2 | 0.00 | 0.00 | 0.00 | 78 | 1017.5 |
| 20260502113003 | 2 | 240 | 1.6 | 3.2 | 0.00 | 0.00 | 0.00 | 78 | 1017.5 |
| 20260502112502 | 2 | 240 | 1.6 | 3.2 | 0.00 | 0.00 | 0.00 | 78 | 1017.5 |
| 20260502112003 | 2 | 240 | 1.6 | 4.8 | 0.00 | 0.00 | 0.00 | 78 | 1017.5 |
| 20260502111503 | 2 | 240 | 1.6 | 4.8 | 0.00 | 0.00 | 0.00 | 78 | 1017.5 |
| 20260502111002 | 2 | 240 | 1.6 | 4.8 | 0.00 | 0.00 | 0.00 | 77 | 1017.4 |
| 20260502110503 | 2 | 240 | 1.6 | 3.2 | 0.00 | 0.00 | 0.00 | 77 | 1017.4 |
| 20260502110002 | 2 | 240 | 1.6 | 4.8 | 0.00 | 0.00 | 0.00 | 77 | 1017.5 |
| 20260502105503 | 2 | 240 | 3.2 | 4.8 | 0.00 | 0.00 | 0.00 | 77 | 1017.5 |
| 20260502105003 | 2 | 240 | 1.6 | 6.4 | 0.00 | 0.00 | 0.00 | 77 | 1017.5 |
| 20260502104503 | 2 | 240 | 3.2 | 8.0 | 0.00 | 0.00 | 0.00 | 77 | 1017.5 |
| 20260502104003 | 2 | 240 | 3.2 | 8.0 | 0.00 | 0.00 | 0.00 | 77 | 1017.5 |
| 20260502103502 | 2 | 240 | 3.2 | 8.0 | 0.00 | 0.00 | 0.00 | 77 | 1017.6 |
| 20260502103003 | 2 | 240 | 4.8 | 8.0 | 0.00 | 0.00 | 0.00 | 77 | 1017.8 |
| 20260502102502 | 2 | 240 | 3.2 | 8.0 | 0.00 | 0.00 | 0.00 | 77 | 1017.7 |
| 20260502102003 | 2 | 240 | 3.2 | 8.0 | 0.00 | 0.00 | 0.00 | 78 | 1017.8 |
| 20260502101503 | 2 | 240 | 4.8 | 6.4 | 0.00 | 0.00 | 0.00 | 78 | 1017.7 |
| 20260502101003 | 2 | 240 | 3.2 | 8.0 | 0.00 | 0.00 | 0.00 | 78 | 1017.8 |
| 20260502100503 | 2 | 242 | 3.2 | 8.0 | 0.00 | 0.00 | 0.00 | 78 | 1017.8 |
| 20260502091502 | 2 | 277 | 1.6 | 6.4 | 0.00 | 0.00 | 0.00 | 78 | 1017.9 |
| 20260502091003 | 2 | 277 | 1.6 | 4.8 | 0.00 | 0.00 | 0.00 | 78 | 1017.9 |
| 20260502090503 | 2 | 277 | 1.6 | 3.2 | 0.00 | 0.00 | 0.00 | 78 | 1018.0 |
| 20260502071503 | 1 | 357 | 0.0 | 1.6 | 0.00 | 0.00 | 0.00 | 82 | 1018.0 |
| 20260502071003 | 1 | 357 | 0.0 | 1.6 | 0.00 | 0.00 | 0.00 | 82 | 1018.2 |
| 20260502070503 | 1 | 357 | 0.0 | 1.6 | 0.00 | 0.00 | 0.00 | 82 | 1018.2 |
| 20260502070003 | 1 | 357 | 0.0 | 3.2 | 0.00 | 0.00 | 0.00 | 82 | 1018.2 |
| 20260502065503 | 1 | 357 | 1.6 | 3.2 | 0.00 | 0.00 | 0.00 | 81 | 1018.2 |
| 20260502065003 | 1 | 358 | 0.0 | 0.0 | 0.00 | 0.00 | 0.00 | 81 | 1018.2 |
| 20260502064502 | 1 | 358 | 0.0 | 0.0 | 0.00 | 0.00 | 0.00 | 81 | 1018.3 |
| 20260502064003 | 1 | 358 | 0.0 | 1.6 | 0.00 | 0.00 | 0.00 | 81 | 1018.3 |
| 20260502063502 | 1 | 357 | 0.0 | 3.2 | 0.00 | 0.00 | 0.00 | 81 | 1018.3 |
| 20260502063003 | 1 | 358 | 0.0 | 3.2 | 0.00 | 0.00 | 0.00 | 81 | 1018.3 |
| 20260502062503 | 1 | 357 | 0.0 | 1.6 | 0.00 | 0.00 | 0.00 | 81 | 1018.4 |
| 20260502062003 | 1 | 357 | 0.0 | 3.2 | 0.00 | 0.00 | 0.00 | 81 | 1018.4 |
| 20260502061503 | 1 | 357 | 1.6 | 3.2 | 0.00 | 0.00 | 0.00 | 80 | 1018.4 |
| 20260502061004 | 1 | 358 | 0.0 | 1.6 | 0.00 | 0.00 | 0.00 | 80 | 1018.4 |
| 20260502060503 | 1 | 357 | 0.0 | 1.6 | 0.00 | 0.00 | 0.00 | 80 | 1018.4 |
| 20260502060002 | 1 | 357 | 0.0 | 1.6 | 0.00 | 0.00 | 0.00 | 80 | 1018.5 |
| 20260502055503 | 1 | 358 | 0.0 | 0.0 | 0.00 | 0.00 | 0.00 | 80 | 1018.5 |
| 20260502055002 | 2 | 358 | 0.0 | 1.6 | 0.00 | 0.00 | 0.00 | 79 | 1018.5 |
| 20260502054503 | 2 | 357 | 0.0 | 1.6 | 0.00 | 0.00 | 0.00 | 79 | 1018.5 |
| 20260502054003 | 2 | 358 | 0.0 | 3.2 | 0.00 | 0.00 | 0.00 | 79 | 1018.6 |
| 20260502053503 | 2 | 357 | 1.6 | 3.2 | 0.00 | 0.00 | 0.00 | 78 | 1018.7 |
| 20260502053003 | 2 | 357 | 0.0 | 3.2 | 0.00 | 0.00 | 0.00 | 78 | 1018.6 |
| 20260502052503 | 2 | 358 | 0.0 | 0.0 | 0.00 | 0.00 | 0.00 | 77 | 1018.5 |
| 20260502052003 | 2 | 358 | 0.0 | 0.0 | 0.00 | 0.00 | 0.00 | 78 | 1018.6 |
| 20260502051502 | 2 | 358 | 0.0 | 0.0 | 0.00 | 0.00 | 0.00 | 77 | 1018.5 |
| 20260502051003 | 2 | 358 | 0.0 | 0.0 | 0.00 | 0.00 | 0.00 | 77 | 1018.5 |
| 20260502050502 | 2 | 358 | 0.0 | 0.0 | 0.00 | 0.00 | 0.00 | 76 | 1018.5 |
| 20260502050003 | 2 | 358 | 0.0 | 0.0 | 0.00 | 0.00 | 0.00 | 75 | 1018.5 |
| 20260502045502 | 3 | 358 | 0.0 | 0.0 | 0.00 | 0.00 | 0.00 | 75 | 1018.5 |
| 20260502045003 | 3 | 358 | 0.0 | 0.0 | 0.00 | 0.00 | 0.00 | 74 | 1018.5 |
| 20260502044503 | 3 | 358 | 0.0 | 0.0 | 0.00 | 0.00 | 0.00 | 73 | 1018.6 |
| 20260502044002 | 3 | 358 | 0.0 | 0.0 | 0.00 | 0.00 | 0.00 | 73 | 1018.5 |
| 20260502043503 | 3 | 358 | 0.0 | 0.0 | 0.00 | 0.03 | 0.00 | 73 | 1018.6 |
| 20260502043002 | 3 | 358 | 0.0 | 0.0 | 0.00 | 0.03 | 0.00 | 72 | 1018.5 |
| 20260502042503 | 3 | 358 | 0.0 | 0.0 | 0.00 | 0.03 | 0.00 | 72 | 1018.4 |
| 20260502042003 | 3 | 358 | 0.0 | 0.0 | 0.00 | 0.03 | 0.00 | 72 | 1018.5 |
| 20260502041503 | 3 | 358 | 0.0 | 0.0 | 0.00 | 0.05 | 0.00 | 71 | 1018.6 |
| 20260502041003 | 4 | 358 | 0.0 | 0.0 | 0.00 | 0.08 | 0.00 | 70 | 1018.6 |
| 20260502040503 | 4 | 358 | 0.0 | 0.0 | 0.00 | 0.08 | 0.00 | 70 | 1018.6 |
| 20260502040003 | 4 | 358 | 0.0 | 0.0 | 0.00 | 0.08 | 0.00 | 69 | 1018.6 |
| 20260502035502 | 4 | 358 | 0.0 | 0.0 | 0.00 | 0.08 | 0.00 | 68 | 1018.5 |
| 20260502035003 | 5 | 358 | 0.0 | 0.0 | 0.00 | 0.08 | 0.00 | 69 | 1018.6 |
| 20260502034502 | 5 | 358 | 0.0 | 0.0 | 0.00 | 0.08 | 0.00 | 68 | 1018.5 |
| 20260502034003 | 5 | 358 | 0.0 | 0.0 | 0.00 | 0.08 | 0.00 | 67 | 1018.6 |
| 20260502033502 | 5 | 358 | 0.0 | 0.0 | 0.00 | 0.08 | 0.00 | 65 | 1018.6 |
| 20260502033003 | 5 | 358 | 0.0 | 0.0 | 0.00 | 0.08 | 0.00 | 63 | 1018.5 |
| 20260502032503 | 5 | 358 | 0.0 | 0.0 | 0.00 | 0.08 | 0.00 | 62 | 1018.5 |
| 20260502032003 | 5 | 358 | 0.0 | 0.0 | 0.00 | 0.08 | 0.00 | 62 | 1018.5 |
| 20260502031503 | 6 | 358 | 0.0 | 0.0 | 0.00 | 0.08 | 0.00 | 61 | 1018.4 |
| 20260502031002 | 6 | 358 | 0.0 | 0.0 | 0.00 | 0.08 | 0.00 | 61 | 1018.4 |
| 20260502030503 | 6 | 358 | 0.0 | 0.0 | 0.00 | 0.08 | 0.00 | 60 | 1018.4 |
| 20260502030003 | 6 | 358 | 0.0 | 0.0 | 0.00 | 0.08 | 0.00 | 60 | 1018.3 |
| 20260502025503 | 6 | 358 | 0.0 | 0.0 | 0.00 | 0.08 | 0.00 | 59 | 1018.3 |
| 20260502025003 | 6 | 358 | 0.0 | 0.0 | 0.00 | 0.08 | 0.00 | 59 | 1018.2 |
| 20260502024503 | 6 | 358 | 0.0 | 1.6 | 0.00 | 0.08 | 0.00 | 59 | 1018.2 |
| 20260502024003 | 6 | 358 | 0.0 | 1.6 | 0.00 | 0.08 | 0.00 | 58 | 1018.1 |
| 20260502023503 | 6 | 357 | 0.0 | 1.6 | 0.00 | 0.08 | 0.00 | 57 | 1018.1 |
| 20260502023003 | 6 | 358 | 0.0 | 0.0 | 0.00 | 0.08 | 0.00 | 58 | 1018.0 |
| 20260502022503 | 7 | 358 | 0.0 | 0.0 | 0.00 | 0.08 | 0.00 | 57 | 1018.0 |
| 20260502022003 | 7 | 358 | 0.0 | 3.2 | 0.00 | 0.08 | 0.00 | 56 | 1017.9 |
| 20260502021502 | 7 | 357 | 0.0 | 6.4 | 0.00 | 0.08 | 0.00 | 55 | 1017.9 |
| 20260502021003 | 7 | 357 | 0.0 | 6.4 | 0.00 | 0.08 | 0.00 | 54 | 1017.9 |
| 20260502020502 | 8 | 311 | 1.6 | 4.8 | 0.00 | 0.08 | 0.00 | 52 | 1017.8 |
| 20260502020003 | 8 | 311 | 1.6 | 4.8 | 0.00 | 0.08 | 0.00 | 52 | 1017.8 |
| 20260502015502 | 8 | 311 | 1.6 | 6.4 | 0.00 | 0.08 | 0.00 | 52 | 1017.8 |
| 20260502015003 | 8 | 311 | 3.2 | 6.4 | 0.00 | 0.08 | 0.00 | 51 | 1017.7 |
| 20260502014503 | 8 | 311 | 1.6 | 4.8 | 0.00 | 0.08 | 0.00 | 52 | 1017.6 |
| 20260502014002 | 8 | 311 | 0.0 | 8.0 | 0.00 | 0.08 | 0.00 | 52 | 1017.7 |
| 20260502013503 | 8 | 311 | 1.6 | 8.0 | 0.00 | 0.08 | 0.00 | 51 | 1017.6 |
| 20260502013002 | 8 | 353 | 0.0 | 8.0 | 0.00 | 0.08 | 0.00 | 51 | 1017.6 |
| 20260502012503 | 9 | 316 | 1.6 | 8.0 | 0.00 | 0.08 | 0.00 | 50 | 1017.8 |
| 20260502012002 | 9 | 300 | 1.6 | 8.0 | 0.00 | 0.08 | 0.00 | 50 | 1017.7 |
| 20260502011503 | 9 | 321 | 3.2 | 6.4 | 0.00 | 0.08 | 0.00 | 49 | 1017.6 |
| 20260502011003 | 10 | 322 | 1.6 | 9.7 | 0.00 | 0.08 | 0.00 | 50 | 1017.6 |
| 20260502010503 | 10 | 318 | 3.2 | 9.7 | 0.00 | 0.08 | 0.00 | 50 | 1017.6 |
| 20260502010003 | 10 | 318 | 3.2 | 11.3 | 0.00 | 0.08 | 0.00 | 49 | 1017.6 |
| 20260502005502 | 10 | 315 | 3.2 | 11.3 | 0.00 | 0.08 | 0.00 | 49 | 1017.5 |
| 20260502005003 | 10 | 337 | 3.2 | 9.7 | 0.00 | 0.08 | 0.00 | 49 | 1017.5 |
| 20260502004502 | 10 | 323 | 4.8 | 8.0 | 0.00 | 0.08 | 0.00 | 49 | 1017.4 |
| 20260502004003 | 10 | 340 | 3.2 | 9.7 | 0.00 | 0.08 | 0.00 | 49 | 1017.4 |
| 20260502003502 | 10 | 323 | 1.6 | 9.7 | 0.00 | 0.08 | 0.00 | 49 | 1017.4 |
| 20260502003003 | 10 | 350 | 6.4 | 12.9 | 0.00 | 0.08 | 0.00 | 48 | 1017.4 |
| 20260502002503 | 11 | 7 | 6.4 | 12.9 | 0.00 | 0.08 | 0.00 | 48 | 1017.3 |
| 20260502002002 | 11 | 7 | 1.6 | 8.0 | 0.00 | 0.08 | 0.00 | 49 | 1017.4 |
| 20260502001503 | 11 | 353 | 3.2 | 8.0 | 0.00 | 0.08 | 0.00 | 49 | 1017.3 |
| 20260502001002 | 11 | 15 | 3.2 | 9.7 | 0.00 | 0.08 | 0.00 | 48 | 1017.4 |
| 20260502000503 | 11 | 4 | 4.8 | 9.7 | 0.00 | 0.08 | 0.00 | 47 | 1017.3 |
| 20260502000003 | 11 | 22 | 4.8 | 12.9 | 0.00 | 0.08 | 0.00 | 47 | 1017.4 |
| 20260501235503 | 11 | 14 | 6.4 | 16.1 | 0.00 | 0.08 | 0.00 | 48 | 1017.4 |
| 20260501235003 | 11 | 341 | 6.4 | 16.1 | 0.00 | 0.08 | 0.00 | 47 | 1017.3 |
| 20260501234503 | 11 | 348 | 4.8 | 11.3 | 0.00 | 0.08 | 0.00 | 46 | 1017.2 |
| 20260501234003 | 11 | 301 | 3.2 | 11.3 | 0.00 | 0.08 | 0.00 | 46 | 1017.3 |
| 20260501233502 | 11 | 314 | 4.8 | 11.3 | 0.00 | 0.08 | 0.00 | 48 | 1017.2 |
| 20260501233003 | 11 | 359 | 4.8 | 11.3 | 0.00 | 0.08 | 0.00 | 46 | 1017.2 |
| 20260501232502 | 11 | 324 | 3.2 | 12.9 | 0.00 | 0.08 | 0.00 | 48 | 1017.2 |
| 20260501232003 | 11 | 348 | 6.4 | 12.9 | 0.00 | 0.08 | 0.00 | 46 | 1017.3 |
| 20260501231502 | 11 | 1 | 3.2 | 12.9 | 0.00 | 0.08 | 0.00 | 47 | 1017.3 |
| 20260501231003 | 11 | 346 | 6.4 | 12.9 | 0.00 | 0.08 | 0.00 | 45 | 1017.3 |
| 20260501230502 | 11 | 317 | 4.8 | 16.1 | 0.00 | 0.08 | 0.00 | 45 | 1017.3 |
| 20260501230003 | 11 | 340 | 9.7 | 16.1 | 0.00 | 0.08 | 0.00 | 46 | 1017.4 |
| 20260501225503 | 11 | 347 | 11.3 | 16.1 | 0.00 | 0.08 | 0.00 | 46 | 1017.3 |
| 20260501225002 | 11 | 344 | 8.0 | 14.5 | 0.00 | 0.08 | 0.00 | 46 | 1017.3 |
| 20260501224503 | 11 | 304 | 3.2 | 16.1 | 0.00 | 0.08 | 0.00 | 49 | 1017.4 |
| 20260501224002 | 10 | 316 | 4.8 | 16.1 | 0.00 | 0.08 | 0.00 | 47 | 1017.4 |
| 20260501223503 | 10 | 334 | 6.4 | 12.9 | 0.00 | 0.08 | 0.00 | 49 | 1017.4 |
| 20260501223002 | 10 | 357 | 6.4 | 12.9 | 0.00 | 0.08 | 0.00 | 47 | 1017.3 |
| 20260501222503 | 10 | 350 | 6.4 | 11.3 | 0.00 | 0.08 | 0.00 | 47 | 1017.4 |
| 20260501222003 | 10 | 308 | 4.8 | 11.3 | 0.00 | 0.08 | 0.00 | 50 | 1017.4 |
| 20260501221503 | 10 | 337 | 4.8 | 20.9 | 0.00 | 0.08 | 0.00 | 48 | 1017.5 |
| 20260501221003 | 11 | 331 | 6.4 | 20.9 | 0.00 | 0.08 | 0.00 | 47 | 1017.5 |
| 20260501220503 | 11 | 323 | 3.2 | 14.5 | 0.00 | 0.08 | 0.00 | 48 | 1017.4 |
| 20260501220003 | 11 | 319 | 6.4 | 20.9 | 0.00 | 0.08 | 0.00 | 47 | 1017.4 |
| 20260501215502 | 11 | 343 | 6.4 | 20.9 | 0.00 | 0.08 | 0.00 | 49 | 1017.3 |
| 20260501215003 | 11 | 13 | 9.7 | 17.7 | 0.00 | 0.08 | 0.00 | 48 | 1017.3 |
| 20260501214502 | 11 | 350 | 8.0 | 17.7 | 0.00 | 0.08 | 0.00 | 49 | 1017.4 |
| 20260501214003 | 11 | 343 | 6.4 | 14.5 | 0.00 | 0.08 | 0.00 | 48 | 1017.3 |
| 20260501213503 | 11 | 337 | 3.2 | 14.5 | 0.00 | 0.08 | 0.00 | 50 | 1017.4 |
| 20260501213003 | 11 | 359 | 6.4 | 14.5 | 0.00 | 0.08 | 0.00 | 48 | 1017.6 |
| 20260501212503 | 11 | 358 | 8.0 | 19.3 | 0.00 | 0.08 | 0.00 | 48 | 1017.5 |
| 20260501212003 | 11 | 343 | 6.4 | 19.3 | 0.00 | 0.08 | 0.00 | 50 | 1017.5 |
| 20260501211503 | 11 | 41 | 6.4 | 16.1 | 0.00 | 0.08 | 0.00 | 50 | 1017.5 |
| 20260501211002 | 11 | 1 | 8.0 | 16.1 | 0.00 | 0.08 | 0.00 | 50 | 1017.6 |
| 20260501210503 | 11 | 1 | 4.8 | 19.3 | 0.00 | 0.08 | 0.00 | 49 | 1017.6 |
| 20260501210002 | 11 | 347 | 8.0 | 19.3 | 0.00 | 0.08 | 0.00 | 50 | 1017.7 |
| 20260501205503 | 10 | 58 | 6.4 | 16.1 | 0.00 | 0.08 | 0.00 | 49 | 1017.7 |
| 20260501205003 | 10 | 23 | 8.0 | 16.1 | 0.00 | 0.08 | 0.00 | 50 | 1017.7 |
| 20260501204503 | 11 | 3 | 6.4 | 14.5 | 0.00 | 0.08 | 0.00 | 50 | 1017.9 |
| 20260501204003 | 10 | 17 | 6.4 | 14.5 | 0.00 | 0.08 | 0.00 | 51 | 1017.8 |
| 20260501203503 | 10 | 16 | 6.4 | 17.7 | 0.00 | 0.08 | 0.00 | 50 | 1017.9 |
| 20260501203003 | 11 | 4 | 4.8 | 17.7 | 0.00 | 0.08 | 0.00 | 51 | 1017.8 |
| 20260501202502 | 11 | 6 | 4.8 | 12.9 | 0.00 | 0.08 | 0.00 | 51 | 1017.8 |
| 20260501202003 | 10 | 326 | 4.8 | 16.1 | 0.00 | 0.08 | 0.00 | 51 | 1017.9 |
| 20260501201502 | 11 | 336 | 6.4 | 16.1 | 0.00 | 0.08 | 0.00 | 52 | 1017.9 |
| 20260501201003 | 10 | 339 | 4.8 | 19.3 | 0.00 | 0.08 | 0.00 | 53 | 1017.8 |
| 20260501200503 | 10 | 1 | 9.7 | 19.3 | 0.00 | 0.08 | 0.00 | 53 | 1017.9 |
| 20260501200003 | 10 | 288 | 3.2 | 17.7 | 0.00 | 0.08 | 0.00 | 55 | 1017.9 |
| 20260501195503 | 10 | 347 | 9.7 | 17.7 | 0.00 | 0.08 | 0.00 | 52 | 1018.0 |
| 20260501195003 | 10 | 341 | 4.8 | 12.9 | 0.00 | 0.08 | 0.00 | 53 | 1017.9 |
| 20260501194503 | 10 | 269 | 4.8 | 11.3 | 0.00 | 0.08 | 0.00 | 55 | 1017.8 |
| 20260501194002 | 10 | 337 | 6.4 | 17.7 | 0.00 | 0.08 | 0.00 | 53 | 1017.9 |
| 20260501193503 | 10 | 338 | 11.3 | 17.7 | 0.00 | 0.08 | 0.00 | 52 | 1017.9 |
| 20260501193003 | 10 | 50 | 6.4 | 12.9 | 0.00 | 0.08 | 0.00 | 54 | 1018.0 |
| 20260501192503 | 10 | 8 | 4.8 | 16.1 | 0.00 | 0.08 | 0.00 | 55 | 1018.0 |
| 20260501192003 | 10 | 324 | 3.2 | 16.1 | 0.00 | 0.08 | 0.00 | 56 | 1018.0 |
| 20260501191503 | 10 | 347 | 6.4 | 14.5 | 0.00 | 0.08 | 0.00 | 55 | 1018.0 |
| 20260501191003 | 10 | 358 | 6.4 | 16.1 | 0.00 | 0.08 | 0.00 | 56 | 1018.2 |
| 20260501190503 | 10 | 22 | 9.7 | 16.1 | 0.00 | 0.08 | 0.00 | 55 | 1018.2 |
| 20260501190003 | 9 | 5 | 4.8 | 14.5 | 0.00 | 0.08 | 0.00 | 56 | 1018.1 |
| 20260501185503 | 9 | 37 | 6.4 | 12.9 | 0.00 | 0.08 | 0.00 | 55 | 1018.1 |
| 20260501185003 | 9 | 346 | 4.8 | 12.9 | 0.00 | 0.08 | 0.00 | 58 | 1018.2 |
| 20260501184502 | 9 | 347 | 4.8 | 11.3 | 0.00 | 0.08 | 0.00 | 56 | 1018.2 |
| 20260501184003 | 9 | 316 | 4.8 | 22.5 | 0.00 | 0.08 | 0.00 | 56 | 1018.0 |
| 20260501183503 | 9 | 35 | 6.4 | 22.5 | 0.00 | 0.08 | 0.00 | 56 | 1018.2 |
| 20260501183003 | 9 | 3 | 4.8 | 19.3 | 0.00 | 0.08 | 0.00 | 59 | 1018.2 |
| 20260501182503 | 9 | 352 | 6.4 | 16.1 | 0.00 | 0.08 | 0.00 | 56 | 1018.2 |
| 20260501182003 | 9 | 19 | 6.4 | 16.1 | 0.00 | 0.08 | 0.00 | 58 | 1018.2 |
| 20260501181503 | 8 | 6 | 8.0 | 14.5 | 0.00 | 0.08 | 0.00 | 60 | 1018.2 |
| 20260501181002 | 8 | 329 | 3.2 | 14.5 | 0.00 | 0.08 | 0.00 | 60 | 1018.1 |
| 20260501180503 | 8 | 332 | 4.8 | 14.5 | 0.00 | 0.08 | 0.00 | 60 | 1018.3 |
| 20260501180002 | 8 | 308 | 4.8 | 14.5 | 0.00 | 0.08 | 0.00 | 61 | 1018.3 |
| 20260501175503 | 8 | 25 | 4.8 | 14.5 | 0.00 | 0.08 | 0.00 | 60 | 1018.3 |
| 20260501175003 | 8 | 345 | 6.4 | 14.5 | 0.00 | 0.08 | 0.00 | 60 | 1018.3 |
| 20260501174503 | 8 | 321 | 9.7 | 17.7 | 0.00 | 0.08 | 0.00 | 60 | 1018.3 |
| 20260501174003 | 8 | 352 | 8.0 | 17.7 | 0.00 | 0.08 | 0.00 | 60 | 1018.3 |
| 20260501173502 | 8 | 339 | 6.4 | 16.1 | 0.00 | 0.08 | 0.00 | 60 | 1018.4 |
| 20260501173003 | 8 | 23 | 6.4 | 19.3 | 0.00 | 0.08 | 0.00 | 60 | 1018.5 |
| 20260501172502 | 8 | 18 | 6.4 | 19.3 | 0.00 | 0.08 | 0.00 | 61 | 1018.5 |
| 20260501172003 | 7 | 350 | 6.4 | 16.1 | 0.00 | 0.08 | 0.00 | 63 | 1018.4 |
| 20260501171503 | 7 | 16 | 8.0 | 16.1 | 0.00 | 0.08 | 0.00 | 62 | 1018.5 |
| 20260501171003 | 7 | 356 | 4.8 | 19.3 | 0.00 | 0.08 | 0.00 | 62 | 1018.4 |
| 20260501170503 | 7 | 345 | 11.3 | 19.3 | 0.00 | 0.08 | 0.00 | 62 | 1018.6 |
| 20260501170003 | 7 | 12 | 8.0 | 16.1 | 0.00 | 0.08 | 0.00 | 63 | 1018.5 |
| 20260501165503 | 7 | 341 | 9.7 | 17.7 | 0.00 | 0.08 | 0.00 | 61 | 1018.5 |
| 20260501165002 | 7 | 4 | 8.0 | 17.7 | 0.00 | 0.08 | 0.00 | 64 | 1018.5 |
| 20260501164503 | 7 | 343 | 4.8 | 22.5 | 0.00 | 0.08 | 0.00 | 65 | 1018.4 |
| 20260501164002 | 7 | 9 | 8.0 | 22.5 | 0.00 | 0.08 | 0.00 | 66 | 1018.5 |
| 20260501163503 | 6 | 0 | 6.4 | 16.1 | 0.00 | 0.08 | 0.00 | 64 | 1018.5 |
| 20260501163003 | 6 | 340 | 6.4 | 22.5 | 0.00 | 0.08 | 0.00 | 64 | 1018.5 |
| 20260501162503 | 6 | 354 | 8.0 | 22.5 | 0.00 | 0.08 | 0.00 | 64 | 1018.4 |
| 20260501162003 | 6 | 342 | 11.3 | 22.5 | 0.00 | 0.08 | 0.00 | 63 | 1018.6 |
| 20260501161503 | 6 | 1 | 9.7 | 19.3 | 0.00 | 0.08 | 0.00 | 66 | 1018.5 |
| 20260501161003 | 6 | 338 | 6.4 | 17.7 | 0.00 | 0.08 | 0.00 | 67 | 1018.4 |
| 20260501160503 | 6 | 351 | 9.7 | 17.7 | 0.00 | 0.08 | 0.00 | 66 | 1018.4 |
| 20260501160003 | 6 | 339 | 9.7 | 17.7 | 0.00 | 0.08 | 0.00 | 67 | 1018.5 |
| 20260501155503 | 5 | 351 | 9.7 | 24.1 | 0.00 | 0.08 | 0.00 | 65 | 1018.6 |
| 20260501155003 | 5 | 345 | 9.7 | 24.1 | 0.00 | 0.08 | 0.00 | 66 | 1018.5 |
| 20260501154502 | 5 | 356 | 8.0 | 16.1 | 0.00 | 0.08 | 0.00 | 67 | 1018.5 |
| 20260501154003 | 5 | 358 | 8.0 | 16.1 | 0.00 | 0.08 | 0.00 | 68 | 1018.5 |
| 20260501153502 | 5 | 337 | 8.0 | 16.1 | 0.00 | 0.08 | 0.00 | 69 | 1018.6 |
| 20260501153003 | 5 | 333 | 3.2 | 25.7 | 0.00 | 0.08 | 0.00 | 68 | 1018.6 |
| 20260501152503 | 5 | 346 | 14.5 | 25.7 | 0.00 | 0.08 | 0.00 | 67 | 1018.6 |
| 20260501152003 | 5 | 4 | 6.4 | 24.1 | 0.00 | 0.08 | 0.00 | 68 | 1018.5 |
| 20260501151503 | 5 | 345 | 11.3 | 24.1 | 0.00 | 0.08 | 0.00 | 68 | 1018.5 |
| 20260501151002 | 5 | 334 | 8.0 | 22.5 | 0.00 | 0.08 | 0.00 | 70 | 1018.5 |
| 20260501150503 | 5 | 345 | 8.0 | 16.1 | 0.00 | 0.08 | 0.00 | 70 | 1018.5 |
| 20260501150002 | 5 | 332 | 6.4 | 19.3 | 0.00 | 0.08 | 0.00 | 72 | 1018.4 |
| 20260501145503 | 5 | 345 | 9.7 | 19.3 | 0.00 | 0.08 | 0.00 | 70 | 1018.5 |
| 20260501145002 | 5 | 345 | 8.0 | 17.7 | 0.00 | 0.08 | 0.00 | 70 | 1018.4 |
| 20260501144503 | 5 | 330 | 8.0 | 20.9 | 0.00 | 0.08 | 0.00 | 71 | 1018.5 |
| 20260501144002 | 5 | 349 | 9.7 | 20.9 | 0.00 | 0.08 | 0.00 | 74 | 1018.5 |
| 20260501143503 | 4 | 346 | 6.4 | 14.5 | 0.00 | 0.08 | 0.00 | 75 | 1018.6 |
| 20260501143002 | 4 | 345 | 6.4 | 12.9 | 0.00 | 0.08 | 0.00 | 76 | 1018.6 |
| 20260501142503 | 4 | 334 | 6.4 | 14.5 | 0.00 | 0.08 | 0.00 | 78 | 1018.5 |
| 20260501142003 | 3 | 326 | 4.8 | 14.5 | 0.00 | 0.08 | 0.00 | 77 | 1018.5 |
| 20260501141502 | 3 | 339 | 8.0 | 12.9 | 0.00 | 0.08 | 0.00 | 78 | 1018.5 |
| 20260501141003 | 3 | 355 | 4.8 | 12.9 | 0.00 | 0.08 | 0.00 | 79 | 1018.6 |
| 20260501140502 | 3 | 352 | 6.4 | 12.9 | 0.00 | 0.08 | 0.00 | 79 | 1018.6 |
| 20260501140003 | 3 | 337 | 8.0 | 12.9 | 0.00 | 0.08 | 0.00 | 80 | 1018.5 |